Data for 04/27/2014

Time Sea-Level Adjusted Pressure Absolute Pressure Temperature Relative Humidity Dew Point   
(mb) (inHg) (mb) (inHg) (C) (F) (%) (C) (F)
00:05 1007 29.74 836 24.69 0.8 33.4 94 -0.1 31.9
00:10 1007 29.74 836 24.69 0.8 33.5 94 0 32
00:15 1007 29.74 836 24.69 0.8 33.5 94 -0 32
00:20 1007 29.74 836 24.69 0.8 33.4 94 -0.1 31.9
00:25 1007 29.74 836 24.69 0.8 33.4 94 -0 32
00:30 1007 29.74 836 24.69 0.9 33.6 94 -0 32
00:35 1007 29.74 836 24.69 0.9 33.7 94 0 32
00:40 1007 29.74 836 24.69 1 33.7 94 0 32.1
00:45 1007 29.74 836 24.69 1 33.8 93 -0 32
00:50 1007 29.74 836 24.69 1 33.8 93 -0 32
00:55 1007 29.74 836 24.69 1.1 33.9 92 -0 32
01:00 1007 29.74 836 24.69 1.2 34.1 92 0.1 32.2
01:05 1007 29.74 836 24.69 1.2 34.2 92 0.1 32.1
01:10 1007 29.74 836 24.69 1.3 34.3 92 0.1 32.2
01:15 1007 29.74 836 24.69 1.3 34.3 92 0.1 32.2
01:20 1007 29.74 836 24.69 1.3 34.3 92 0.2 32.3
01:25 1007 29.74 836 24.69 1.3 34.3 92 0.2 32.3
01:30 1007 29.74 836 24.69 1.3 34.3 92 0.2 32.3
01:35 1007 29.74 836 24.69 1.3 34.4 92 0.1 32.3
01:40 1007 29.74 836 24.69 1.4 34.4 92 0.2 32.3
01:45 1007 29.74 836 24.69 1.4 34.5 92 0.2 32.3
01:50 1007 29.74 836 24.69 1.4 34.5 91 0.1 32.2
01:55 1007 29.74 836 24.69 1.3 34.4 91 0.1 32.1
02:00 1007 29.74 836 24.69 1.3 34.4 91 -0 32
02:05 1007 29.74 836 24.69 1.3 34.4 91 0.1 32.1
02:10 1007 29.74 836 24.69 1.4 34.5 91 0 32.1
02:15 1007 29.74 836 24.69 1.4 34.5 91 0 32
02:20 1007 29.74 836 24.69 1.5 34.6 90 0 32
02:25 1007 29.74 836 24.69 1.6 34.8 88 -0.2 31.7
02:30 1007 29.74 837 24.72 1.6 34.9 88 -0.2 31.6
02:35 1007 29.74 836 24.69 1.7 35 86 -0.3 31.4
02:40 1007 29.74 836 24.69 1.7 35.1 87 -0.3 31.5
02:45 1007 29.74 836 24.69 1.8 35.2 86 -0.3 31.4
02:50 1007 29.74 836 24.69 1.8 35.3 86 -0.3 31.5
02:55 1007 29.74 837 24.72 1.8 35.2 86 -0.3 31.4
03:00 1007 29.74 837 24.72 1.8 35.2 86 -0.4 31.4
03:05 1008 29.77 837 24.72 1.8 35.2 85 -0.5 31.2
03:10 1008 29.77 837 24.72 1.8 35.3 85 -0.5 31.1
03:15 1008 29.77 837 24.72 1.9 35.3 84 -0.5 31.1
03:20 1008 29.77 837 24.72 1.9 35.3 84 -0.5 31.1
03:25 1008 29.77 837 24.72 1.9 35.5 85 -0.4 31.3
03:30 1008 29.77 837 24.72 1.9 35.4 84 -0.5 31.1
03:35 1008 29.77 837 24.72 1.9 35.4 85 -0.4 31.3
03:40 1008 29.77 837 24.72 1.9 35.4 84 -0.6 30.9
03:45 1008 29.77 837 24.72 1.9 35.4 83 -0.7 30.7
03:50 1008 29.77 837 24.72 1.9 35.4 83 -0.8 30.6
03:55 1008 29.77 837 24.72 1.9 35.4 82 -0.9 30.3
04:00 1008 29.77 837 24.72 1.9 35.3 81 -1.1 29.9
04:05 1008 29.77 837 24.72 1.8 35.2 79 -1.5 29.3
04:10 1008 29.77 837 24.72 1.7 35.1 79 -1.5 29.4
04:15 1008 29.77 837 24.72 1.7 35.1 77 -1.8 28.7
04:20 1008 29.77 837 24.72 1.6 34.9 77 -1.9 28.5
04:25 1008 29.77 837 24.72 1.6 34.9 76 -2.2 28.1
04:30 1008 29.77 837 24.72 1.5 34.7 76 -2.3 27.9
04:35 1008 29.77 837 24.72 1.5 34.6 74 -2.8 27
04:40 1008 29.77 837 24.72 1.4 34.6 73 -2.9 26.8
04:45 1008 29.77 837 24.72 1.5 34.7 72 -3.1 26.5
04:50 1008 29.77 837 24.72 1.5 34.7 73 -2.8 26.9
04:55 1008 29.77 837 24.72 1.5 34.7 73 -2.9 26.8
05:00 1008 29.77 837 24.72 1.5 34.7 74 -2.6 27.4
05:05 1008 29.77 837 24.72 1.5 34.7 72 -2.9 26.7
05:10 1008 29.77 838 24.75 1.5 34.8 75 -2.5 27.6
05:15 1008 29.77 838 24.75 1.4 34.6 77 -2.2 28.1
05:20 1009 29.8 838 24.75 1.4 34.5 76 -2.3 27.8
05:25 1009 29.8 838 24.75 1.5 34.7 74 -2.6 27.3
05:30 1009 29.8 838 24.75 1.6 34.8 76 -2.3 27.9
05:35 1009 29.8 838 24.75 1.5 34.8 77 -2.1 28.2
05:40 1008 29.77 838 24.75 1.5 34.6 77 -2.1 28.3
05:45 1008 29.77 838 24.75 1.5 34.7 78 -2 28.4
05:50 1008 29.77 838 24.75 1.5 34.6 79 -1.8 28.7
05:55 1008 29.77 838 24.75 1.3 34.4 79 -1.8 28.7
06:00 1009 29.8 838 24.75 1.3 34.3 80 -1.8 28.8
06:05 1009 29.8 838 24.75 1.3 34.3 79 -2.1 28.3
06:10 1009 29.8 838 24.75 1.4 34.5 77 -2.2 28
06:15 1009 29.8 838 24.75 1.5 34.6 76 -2.3 27.8
06:20 1009 29.8 838 24.75 1.6 34.8 74 -2.6 27.2
06:25 1009 29.8 838 24.75 1.7 35 71 -3.1 26.5
06:30 1009 29.8 838 24.75 1.7 35.1 74 -2.4 27.6
06:35 1009 29.8 838 24.75 1.6 35 72 -2.9 26.8
06:40 1009 29.8 838 24.75 1.7 35 73 -2.7 27.1
06:45 1009 29.8 838 24.75 1.7 35 73 -2.6 27.4
06:50 1009 29.8 838 24.75 1.7 35 73 -2.7 27.1
06:55 1009 29.8 838 24.75 1.7 35.1 74 -2.5 27.5
07:00 1009 29.8 838 24.75 1.8 35.2 74 -2.4 27.6
07:05 1009 29.8 838 24.75 1.9 35.3 72 -2.7 27.1
07:10 1009 29.8 838 24.75 1.8 35.3 75 -2.2 28.1
07:15 1009 29.8 838 24.75 1.7 35 77 -1.9 28.5
07:20 1009 29.8 838 24.75 1.7 35 76 -2.1 28.2
07:25 1009 29.8 838 24.75 1.8 35.2 75 -2.2 28.1
07:30 1009 29.8 838 24.75 1.9 35.4 71 -2.9 26.8
07:35 1009 29.8 838 24.75 2 35.6 72 -2.5 27.6
07:40 1009 29.8 838 24.75 2.2 36 73 -2.2 28
07:45 1009 29.8 838 24.75 2.6 36.7 70 -2.4 27.6
07:50 1009 29.8 838 24.75 3 37.4 68 -2.3 27.9
07:55 1009 29.8 838 24.75 3.2 37.7 64 -2.9 26.7
08:00 1009 29.8 838 24.75 3.5 38.4 63 -2.8 27
08:05 1009 29.8 838 24.75 3.6 38.5 60 -3.3 26
08:10 1009 29.8 838 24.75 4.1 39.3 63 -2.4 27.7
08:15 1009 29.8 838 24.75 4.6 40.2 61 -2.3 27.9
08:20 1009 29.8 838 24.75 4.7 40.5 61 -2.3 27.9
08:25 1009 29.8 838 24.75 4.3 39.8 62 -2.3 27.9
08:30 1009 29.8 838 24.75 4.4 39.9 59 -3 26.6
08:35 1009 29.8 838 24.75 5 41 55 -3.4 25.9
08:40 1009 29.8 838 24.75 5.1 41.2 55 -3.1 26.3
08:45 1009 29.8 838 24.75 4.6 40.3 52 -4.4 24.1
08:50 1009 29.8 838 24.75 4.3 39.8 51 -4.9 23.2
08:55 1009 29.8 838 24.75 4.3 39.8 55 -3.8 25.2
09:00 1009 29.8 838 24.75 4.2 39.6 53 -4.5 23.8
09:05 1009 29.8 838 24.75 4.4 40 52 -4.6 23.7
09:10 1009 29.8 838 24.75 4.7 40.4 52 -4.3 24.3
09:15 1009 29.8 838 24.75 4.8 40.7 53 -4 24.9
09:20 1009 29.8 838 24.75 5.3 41.5 52 -3.8 25.2
09:25 1009 29.8 838 24.75 5.5 41.8 50 -4.2 24.5
09:30 1009 29.8 838 24.75 5.4 41.6 51 -4 24.7
09:35 1009 29.8 838 24.75 5.3 41.5 49 -4.6 23.6
09:40 1009 29.8 838 24.75 5.5 41.9 49 -4.4 24.1
09:45 1009 29.8 838 24.75 6 42.8 47 -4.5 23.8
09:50 1009 29.8 838 24.75 5.8 42.4 48 -4.4 24.1
09:55 1009 29.8 838 24.75 6.1 43 47 -4.3 24.3
10:00 1009 29.8 838 24.75 6.3 43.4 46 -4.5 23.9
10:05 1009 29.8 838 24.75 6.1 43 46 -4.5 23.9
10:10 1009 29.8 838 24.75 6.4 43.5 44 -4.8 23.3
10:15 1009 29.8 838 24.75 5.9 42.7 47 -4.5 23.9
10:20 1009 29.8 838 24.75 6.2 43.1 47 -4.3 24.3
10:25 1009 29.8 838 24.75 6.3 43.3 48 -4.1 24.7
10:30 1009 29.8 838 24.75 6 42.7 48 -4.2 24.4
10:35 1009 29.8 838 24.75 5.3 41.6 49 -4.4 24
10:40 1009 29.8 838 24.75 5.5 42 49 -4.3 24.2
10:45 1009 29.8 838 24.75 5.6 42.1 48 -4.4 24.1
10:50 1009 29.8 838 24.75 6.2 43.1 46 -4.7 23.5
10:55 1009 29.8 838 24.75 7.7 45.8 40 -5 22.9
11:00 1009 29.8 838 24.75 7.5 45.6 41 -5 23
11:05 1009 29.8 838 24.75 7.2 44.9 41 -5.1 22.9
11:10 1009 29.8 838 24.75 7 44.7 42 -4.9 23.2
11:15 1009 29.8 838 24.75 6.7 44.1 41 -5.6 21.9
11:20 1009 29.8 838 24.75 5.9 42.6 43 -5.7 21.8
11:25 1009 29.8 838 24.75 5.9 42.6 44 -5.5 22.1
11:30 1009 29.8 838 24.75 6.9 44.5 38 -6.4 20.5
11:35 1008 29.77 838 24.75 7.6 45.7 34 -7.4 18.7
11:40 1008 29.77 838 24.75 7 44.6 38 -6.4 20.5
11:45 1008 29.77 838 24.75 7.2 45 34 -7.5 18.5
11:50 1008 29.77 838 24.75 7.3 45.2 34 -7.4 18.7
11:55 1008 29.77 838 24.75 7.5 45.4 35 -6.9 19.7
12:00 1008 29.77 837 24.72 6.9 44.4 35 -7.6 18.3
12:05 1008 29.77 837 24.72 7.9 46.3 30 -8.6 16.4
12:10 1008 29.77 837 24.72 7.9 46.2 31 -8.3 17.1
12:15 1008 29.77 837 24.72 8.2 46.8 32 -7.7 18.2
12:20 1008 29.77 837 24.72 8.2 46.8 31 -8 17.7
12:25 1008 29.77 837 24.72 8.1 46.6 32 -7.8 18
12:30 1008 29.77 837 24.72 8.2 46.7 32 -7.7 18.1
12:35 1008 29.77 837 24.72 8.2 46.8 32 -7.5 18.5
12:40 1008 29.77 837 24.72 8.1 46.5 33 -7.4 18.8
12:45 1008 29.77 837 24.72 8.1 46.6 32 -7.8 18
12:50 1008 29.77 837 24.72 8.3 46.9 31 -8.1 17.5
12:55 1008 29.77 837 24.72 8.1 46.6 31 -7.8 17.9
13:00 1008 29.77 837 24.72 8.2 46.7 31 -8 17.7
13:05 1008 29.77 837 24.72 8.4 47.1 31 -8 17.7
13:10 1008 29.77 837 24.72 8.5 47.2 29 -8.5 16.7
13:15 1008 29.77 837 24.72 8.7 47.6 29 -8.4 16.8
13:20 1008 29.77 837 24.72 8.2 46.7 30 -8.2 17.3
13:25 1008 29.77 837 24.72 8.4 47 29 -8.5 16.8
13:30 1008 29.77 837 24.72 8.7 47.6 29 -8.3 17
13:35 1008 29.77 837 24.72 8.8 47.8 28 -8.7 16.3
13:40 1008 29.77 837 24.72 8.8 47.9 31 -7.5 18.5
13:45 1008 29.77 837 24.72 8.7 47.6 31 -7.7 18.1
13:50 1008 29.77 837 24.72 8.6 47.5 30 -8.1 17.4
13:55 1008 29.77 837 24.72 9 48.2 28 -8.6 16.4
14:00 1008 29.77 837 24.72 8.9 48.1 29 -8.2 17.3
14:05 1008 29.77 837 24.72 8.9 48.1 29 -8 17.6
14:10 1008 29.77 837 24.72 8.6 47.6 30 -8.2 17.3
14:15 1008 29.77 837 24.72 8.6 47.5 30 -8.1 17.4
14:20 1008 29.77 837 24.72 8.8 47.9 30 -7.8 17.9
14:25 1008 29.77 837 24.72 8.9 47.9 29 -8.1 17.4
14:30 1008 29.77 837 24.72 8.9 48 31 -7.5 18.4
14:35 1008 29.77 837 24.72 8.9 48 30 -7.7 18.1
14:40 1008 29.77 837 24.72 8.9 48 30 -7.8 17.9
14:45 1008 29.77 837 24.72 8.7 47.6 30 -7.9 17.8
14:50 1008 29.77 837 24.72 8.8 47.8 31 -7.3 18.8
14:55 1008 29.77 837 24.72 9 48.2 30 -7.5 18.6
15:00 1007 29.74 837 24.72 8.7 47.7 31 -7.3 18.8
15:05 1007 29.74 837 24.72 8.7 47.6 33 -6.8 19.8
15:10 1008 29.77 837 24.72 8.4 47.1 34 -6.6 20.2
15:15 1008 29.77 837 24.72 8.7 47.6 33 -6.8 19.8
15:20 1008 29.77 837 24.72 8.9 48 32 -6.8 19.8
15:25 1008 29.77 837 24.72 8.7 47.7 34 -6.3 20.7
15:30 1008 29.77 837 24.72 8.7 47.6 33 -6.7 19.9
15:35 1008 29.77 837 24.72 9 48.2 32 -6.9 19.7
15:40 1008 29.77 837 24.72 9.9 49.8 31 -6.4 20.5
15:45 1008 29.77 837 24.72 9.8 49.7 30 -7 19.4
15:50 1008 29.77 837 24.72 10.4 50.6 30 -6.6 20.1
15:55 1008 29.77 837 24.72 10.5 50.9 27 -7.6 18.3
16:00 1008 29.77 837 24.72 10.6 51.1 27 -7.6 18.3
16:05 1008 29.77 837 24.72 10.5 50.9 27 -7.7 18.2
16:10 1008 29.77 837 24.72 10.1 50.1 28 -7.7 18.2
16:15 1008 29.77 837 24.72 9.6 49.2 28 -8.2 17.2
16:20 1008 29.77 837 24.72 9.8 49.7 27 -8.2 17.2
16:25 1007 29.74 837 24.72 9.8 49.7 29 -7.6 18.3
16:30 1007 29.74 837 24.72 9.8 49.7 28 -7.8 18
16:35 1008 29.77 837 24.72 9.9 49.9 28 -7.8 18
16:40 1008 29.77 837 24.72 9.7 49.5 27 -8.5 16.7
16:45 1008 29.77 837 24.72 10.4 50.6 27 -7.8 17.9
16:50 1008 29.77 837 24.72 10.6 51.1 27 -7.6 18.3
16:55 1008 29.77 837 24.72 10.1 50.2 30 -6.8 19.7
17:00 1008 29.77 837 24.72 9.7 49.5 30 -7 19.5
17:05 1008 29.77 837 24.72 9.3 48.7 31 -7.1 19.1
17:10 1008 29.77 837 24.72 9.2 48.6 31 -7.2 19
17:15 1008 29.77 837 24.72 9.1 48.4 31 -7.1 19.2
17:20 1008 29.77 837 24.72 9 48.2 31 -7.2 19.1
17:25 1008 29.77 837 24.72 9 48.3 32 -6.8 19.8
17:30 1008 29.77 837 24.72 9 48.2 33 -6.5 20.3
17:35 1008 29.77 837 24.72 8.8 47.8 32 -7.2 19.1
17:40 1008 29.77 837 24.72 9 48.2 31 -7.2 19.1
17:45 1008 29.77 837 24.72 9 48.3 31 -7.3 18.9
17:50 1008 29.77 837 24.72 8.6 47.4 31 -7.5 18.5
17:55 1008 29.77 837 24.72 8.2 46.8 32 -7.4 18.7
18:00 1008 29.77 837 24.72 8.2 46.8 33 -7.3 18.9
18:05 1008 29.77 837 24.72 8.1 46.6 34 -7 19.5
18:10 1008 29.77 837 24.72 8.1 46.5 33 -7.1 19.2
18:15 1008 29.77 837 24.72 7.8 46.1 33 -7.4 18.7
18:20 1008 29.77 837 24.72 7.8 46.1 34 -7.3 18.9
18:25 1008 29.77 837 24.72 7.8 46.1 34 -7.1 19.3
18:30 1008 29.77 837 24.72 8.1 46.5 34 -6.8 19.8
18:35 1008 29.77 837 24.72 7.9 46.1 47 -2.8 27
18:40 1008 29.77 837 24.72 6.7 44.1 47 -3.8 25.2
18:45 1008 29.77 837 24.72 6.4 43.6 48 -3.9 25
18:50 1008 29.77 837 24.72 6.7 44 48 -3.5 25.6
18:55 1008 29.77 837 24.72 7 44.6 43 -4.7 23.6
19:00 1008 29.77 837 24.72 7.2 45 39 -5.7 21.7
19:05 1008 29.77 837 24.72 7.3 45.2 39 -5.8 21.5
19:10 1008 29.77 837 24.72 7.2 44.9 41 -5.3 22.5
19:15 1008 29.77 837 24.72 6.9 44.5 42 -5.1 22.8
19:20 1008 29.77 837 24.72 6.9 44.4 41 -5.3 22.5
19:25 1008 29.77 837 24.72 6.8 44.2 43 -4.9 23.1
19:30 1008 29.77 838 24.75 6.6 44 45 -4.4 24.1
19:35 1009 29.8 838 24.75 6.5 43.7 51 -2.9 26.9
19:40 1009 29.8 838 24.75 5.6 42 62 -1 30.1
19:45 1009 29.8 839 24.78 4.5 40.1 68 -1 30.3
19:50 1010 29.83 839 24.78 4.1 39.4 74 -0.1 31.9
19:55 1010 29.83 839 24.78 3.5 38.4 79 0.3 32.6
20:00 1010 29.83 839 24.78 3 37.4 83 0.4 32.7
20:05 1010 29.83 839 24.78 2.5 36.6 85 0.2 32.4
20:10 1010 29.83 839 24.78 2.5 36.5 85 0.2 32.4
20:15 1010 29.83 839 24.78 2.6 36.7 83 -0 31.9
20:20 1010 29.83 840 24.81 2.9 37.2 81 -0.1 31.9
20:25 1010 29.83 840 24.81 2.9 37.2 82 0.1 32.1
20:30 1011 29.85 840 24.81 2.6 36.7 84 0.2 32.4
20:35 1011 29.85 840 24.81 2.3 36.2 86 0.2 32.4
20:40 1011 29.85 840 24.81 2 35.5 87 -0 31.9
20:45 1011 29.85 840 24.81 1.8 35.2 86 -0.3 31.4
20:50 1011 29.85 840 24.81 1.5 34.7 89 -0.2 31.7
20:55 1011 29.85 840 24.81 1.2 34.2 90 -0.3 31.5
21:00 1011 29.85 840 24.81 1.1 34 90 -0.4 31.3
21:05 1011 29.85 840 24.81 0.9 33.7 91 -0.4 31.4
21:10 1011 29.85 840 24.81 0.8 33.5 92 -0.4 31.4
21:15 1011 29.85 840 24.81 0.8 33.4 92 -0.3 31.5
21:20 1011 29.85 840 24.81 0.8 33.4 92 -0.3 31.4
21:25 1011 29.85 840 24.81 0.7 33.2 93 -0.4 31.3
21:30 1011 29.85 840 24.81 0.5 33 92 -0.6 30.9
21:35 1011 29.85 840 24.81 0.3 32.6 92 -0.8 30.6
21:40 1011 29.85 840 24.81 0.2 32.4 93 -0.8 30.5
21:45 1011 29.85 840 24.81 0.1 32.2 93 -0.8 30.5
21:50 1011 29.85 840 24.81 0.1 32.2 94 -0.8 30.5
21:55 1011 29.85 841 24.83 -0.1 31.9 94 -0.9 30.4
22:00 1011 29.85 841 24.83 -0.2 31.7 95 -0.9 30.4
22:05 1012 29.88 841 24.83 -0.3 31.5 95 -0.9 30.3
22:10 1012 29.88 841 24.83 -0.4 31.3 95 -1 30.1
22:15 1012 29.88 841 24.83 -0.5 31.1 96 -1.1 30.1
22:20 1012 29.88 841 24.83 -0.5 31 96 -1.1 30
22:25 1012 29.88 841 24.83 -0.6 31 96 -1.1 30
22:30 1012 29.88 841 24.83 -0.6 30.9 96 -1.1 30
22:35 1012 29.88 841 24.83 -0.6 30.9 96 -1.1 30
22:40 1012 29.88 841 24.83 -0.6 30.9 96 -1.1 29.9
22:45 1012 29.88 841 24.83 -0.7 30.8 96 -1.2 29.9
22:50 1012 29.88 841 24.83 -0.8 30.6 97 -1.3 29.7
22:55 1012 29.88 841 24.83 -0.9 30.5 97 -1.3 29.6
23:00 1012 29.88 841 24.83 -0.9 30.4 97 -1.3 29.6
23:05 1012 29.88 841 24.83 -0.9 30.4 97 -1.3 29.6
23:10 1012 29.88 841 24.83 -0.9 30.4 97 -1.4 29.6
23:15 1012 29.88 842 24.86 -0.9 30.4 97 -1.3 29.6
23:20 1012 29.88 842 24.86 -0.9 30.4 97 -1.4 29.6
23:25 1012 29.88 842 24.86 -0.9 30.4 97 -1.4 29.6
23:30 1012 29.88 842 24.86 -0.9 30.4 97 -1.3 29.6
23:35 1012 29.88 842 24.86 -0.9 30.5 97 -1.3 29.7
23:40 1013 29.91 842 24.86 -0.9 30.4 97 -1.3 29.7
23:45 1013 29.91 842 24.86 -0.9 30.4 97 -1.3 29.6
23:50 1013 29.91 842 24.86 -0.9 30.4 97 -1.3 29.6
23:55 1013 29.91 842 24.86 -0.9 30.4 97 -1.3 29.6
24:00 1013 29.91 842 24.86 -0.9 30.4 97 -1.3 29.6